Wednesday, August 15, 2018, 4:41 AM EDT
Back to Local

KWVL, Waterville, Waterville Robert Lafleur Airport

Location: Waterville, ME, United States Lat: 44.533
Local Time: 4:41 AM EDT ( 8:41 GMT) Lon: -69.683
Time Zone: US/Eastern Elev: 334 ft

Show me the last for .
Show Decoded

2018-08-15 03:56 METAR KWVL 150756Z AUTO 00000KT 10SM OVC002 21/20 A2979 RMK AO2 SLP114 T02060200
                 $ =
2018-08-15 03:29 METAR KWVL 150729Z AUTO 00000KT 10SM OVC002 21/20 A2980 RMK AO2 $ =
2018-08-15 02:56 METAR KWVL 150656Z AUTO 00000KT 10SM OVC004 21/20 A2980 RMK AO2 SLP116 T02060200
                 $ =
2018-08-15 01:56 METAR KWVL 150556Z AUTO 00000KT 10SM OVC004 21/20 A2981 RMK AO2 RAB11E22 SLP119
                 P0000 60000 T02060200 10217 20206 58010 $ =
2018-08-15 00:56 METAR KWVL 150456Z AUTO 00000KT 10SM OVC004 21/20 A2982 RMK AO2 SLP124 T02060200
                 402500200 $ =
2018-08-14 22:56 METAR KWVL 150256Z AUTO VRB05KT 7SM OVC004 21/21 A2984 RMK AO2 SLP129 T02060206
                 50005 $ =
2018-08-14 22:27 METAR KWVL 150227Z AUTO VRB06KT 10SM OVC004 21/21 A2985 RMK AO2 $ =
2018-08-14 21:56 METAR KWVL 150156Z AUTO 00000KT 10SM OVC006 21/21 A2985 RMK AO2 SLP131 T02110206
                 $ =
2018-08-14 20:56 METAR KWVL 150056Z AUTO VRB04KT 10SM OVC006 21/21 A2985 RMK AO2 SLP132 T02110206
                 $ =
2018-08-14 20:35 METAR KWVL 150035Z AUTO 20003KT 10SM BKN008 21/21 A2983 RMK AO2 =
2018-08-14 20:11 METAR KWVL 150011Z AUTO VRB03KT 4SM BR FEW008 22/21 A2984 RMK AO2 =
2018-08-14 19:56 METAR KWVL 142356Z AUTO VRB03KT 10SM CLR 22/21 A2983 RMK AO2 SLP124 60000
                 T02170206 10250 20217 55004 =
2018-08-14 18:56 METAR KWVL 142256Z AUTO 00000KT 10SM CLR 23/21 A2982 RMK AO2 SLP123 T02330211 =
2018-08-14 18:23 METAR KWVL 142223Z AUTO VRB04KT 10SM FEW022 SCT029 24/22 A2982 RMK AO2 =
2018-08-14 17:56 METAR KWVL 142156Z AUTO 00000KT 10SM FEW017 BKN023 BKN030 24/22 A2984 RMK AO2
                 SLP127 T02390217 =
2018-08-14 17:31 METAR KWVL 142131Z AUTO VRB03KT 10SM SCT017 BKN022 25/22 A2984 RMK AO2 =
2018-08-14 16:56 METAR KWVL 142056Z AUTO 22003KT 10SM SCT014 SCT039 24/22 A2984 RMK AO2 SLP128
                 60000 T02440217 56010 =
2018-08-14 16:52 METAR KWVL 142052Z AUTO VRB04KT 10SM SCT014 SCT039 25/22 A2984 RMK AO2 =
2018-08-14 16:41 METAR KWVL 142041Z AUTO VRB03KT 10SM FEW010 BKN015 24/22 A2984 RMK AO2 =
2018-08-14 15:56 METAR KWVL 141956Z AUTO VRB05KT 10SM SCT007 OVC041 24/22 A2986 RMK AO2 SLP135
                 T02390217 =
2018-08-14 15:51 METAR KWVL 141951Z AUTO 19006KT 10SM SCT007 OVC039 23/22 A2986 RMK AO2 =
2018-08-14 15:31 METAR KWVL 141931Z AUTO VRB03KT 10SM BKN009 BKN014 OVC018 23/22 A2987 RMK AO2
                 CIG 005V010 =
2018-08-14 15:13 METAR KWVL 141913Z AUTO VRB03KT 10SM SCT009 OVC016 23/22 A2987 RMK AO2 =
2018-08-14 15:04 METAR KWVL 141904Z AUTO VRB03KT 10SM SCT011 OVC016 23/22 A2987 RMK AO2 =
2018-08-14 14:56 METAR KWVL 141856Z AUTO 20005KT 10SM FEW008 BKN014 OVC019 23/22 A2987 RMK AO2
                 RAB21E35 SLP139 P0000 T02330217 =
2018-08-14 13:56 METAR KWVL 141756Z AUTO 00000KT 10SM OVC007 23/22 A2988 RMK AO2 RAE49 CIG
                 005V010 SLP142 P0000 60006 T02330222 10233 20206 58010 =
2018-08-14 13:04 METAR KWVL 141704Z AUTO 00000KT 6SM -RA BR BKN009 22/22 A2989 RMK AO2 CIG
                 006V010 P0000 =
2018-08-14 12:56 METAR KWVL 141656Z AUTO 00000KT 7SM -RA SCT007 23/22 A2989 RMK AO2 SLP147 P0002
                 T02280217 =
2018-08-14 12:13 METAR KWVL 141613Z AUTO 00000KT 9SM -RA SCT007 22/22 A2990 RMK AO2 P0002 =
2018-08-14 12:04 METAR KWVL 141604Z AUTO 00000KT 3SM -RA BR BKN007 22/22 A2990 RMK AO2 CIG
                 004V009 P0002 =
2018-08-14 11:56 METAR KWVL 141556Z AUTO 00000KT 4SM RA BR OVC005 22/22 A2991 RMK AO2 RAE09B35
                 CIG 004V009 SLP152 P0003 T02220217 =
2018-08-14 11:54 METAR KWVL 141554Z AUTO 00000KT 4SM RA BR OVC005 22/21 A2991 RMK AO2 RAE09B35
                 CIG 004V009 P0002 =
2018-08-14 11:42 METAR KWVL 141542Z AUTO 00000KT 4SM RA BR BKN007 OVC010 22/21 A2991 RMK AO2
                 RAE09B35 CIG 005V009 P0001 =
2018-08-14 10:56 METAR KWVL 141456Z AUTO 00000KT 9SM -RA BKN010 22/21 A2991 RMK AO2 RAB10 SLP151
                 P0001 60001 T02170211 58008 =
2018-08-14 10:44 METAR KWVL 141444Z AUTO 00000KT 5SM -RA BR BKN008 BKN016 22/21 A2991 RMK AO2
                 RAB10 P0000 =
2018-08-14 10:36 METAR KWVL 141436Z AUTO 00000KT 5SM -RA BR SCT008 BKN016 22/21 A2991 RMK AO2
                 RAB10 P0000 =
2018-08-14 09:56 METAR KWVL 141356Z AUTO 04003KT 9SM OVC006 22/20 A2992 RMK AO2 SLP156 T02170200
                 =
2018-08-14 08:56 METAR KWVL 141256Z AUTO 04003KT 10SM OVC006 21/20 A2992 RMK AO2 RAB16E31 SLP157
                 P0000 T02110200 =
2018-08-14 07:56 METAR KWVL 141156Z AUTO 00000KT 10SM OVC006 21/19 A2993 RMK AO2 SLP160 60000
                 T02060194 10206 20200 53000 =
2018-08-14 07:08 METAR KWVL 141108Z AUTO 04003KT 10SM BKN004 BKN023 BKN035 20/19 A2992 RMK AO2 =
2018-08-14 06:56 METAR KWVL 141056Z AUTO 05003KT 10SM FEW004 SCT023 SCT035 20/19 A2992 RMK AO2
                 SLP156 T02000194 =
2018-08-14 06:04 METAR KWVL 141004Z AUTO 00000KT 10SM FEW005 SCT010 SCT035 20/19 A2992 RMK AO2 =
2018-08-14 05:56 METAR KWVL 140956Z AUTO 00000KT 10SM FEW034 20/19 A2992 RMK AO2 SLP157 T02000194
                 =
2018-08-14 05:15 METAR KWVL 140915Z AUTO 00000KT 10SM FEW003 SCT008 20/19 A2992 RMK AO2 =
2018-08-14 04:56 METAR KWVL 140856Z AUTO 00000KT 10SM SCT003 OVC008 20/19 A2993 RMK AO2 SLP160
                 60000 T02000194 58013 =

Support USWX by starting your Amazon purchase here.